Sula, MT (59871)

1:52 PM MDT on August 30, 2016 (GMT -0600)
RAWS | | Change Station
Active Advisory: Fire Weather Warning Active Notice: Record Report

Elev 6628 ft 45.93 °N, 113.74 °W | Updated 43 minutes ago

Clear
Clear
75.0 °F
Feels Like 75.0 °F
N
5.0
Wind Variable Wind from NE
Gusts 9.0 mph

Today
High -- | Low -- °F
--% Chance of Precip.
Yesterday
High -- | Low -- °F
Precip. -- in
Pressure 30.06 in
Visibility 7.0 miles
Clouds Clear
Dew Point 29.0 °F
Humidity 18%
Rainfall in
Snow Depth Not available.
6:54 AM 8:16 PM
Waning Crescent, 3% visible
METAR KBTM 301853Z AUTO VRB03KT 7SM CLR 25/00 A3022 RMK AO2 SLP177 T02500000
Pressure 30.06 in
Visibility 7.0 miles
Clouds Clear
Dew Point 29.0 °F
Humidity 18%
Rainfall in
Snow Depth Not available.
6:54 AM 8:16 PM
Waning Crescent, 3% visible
METAR KBTM 301853Z AUTO VRB03KT 7SM CLR 25/00 A3022 RMK AO2 SLP177 T02500000

10-Day Weather Forecast

Almanac

Astronomy

Aug. 30, 2016 Rise Set
Actual Time
Civil Twilight
Nautical Twilight
Astronomical Twilight
Moon
Length of Visible Light
Length of Day
Tomorrow will be .
, % of the Moon is Illuminated

Today's Extremes

State Highs State Lows

Community

WunderPhotos

Upload Photos

1,935,883 photos uploaded!

WunderBlog® & News

Nearby

Air Quality

  Air Quality AQ Index Pollutant
Not available.

Snow Depth

Station Depth Elevation

Earthquake Activity

City Distance Mag. Time & Date
Minimum magnitude displayed is 2.5.

Coastal Water Temperatures

Place Temperature

Stations

Nearby Weather Stations

Station Location Temp. Windchill Dew Point Humidity Wind Precip. Elev Updated Type
                   

Watches & Warnings

Fire Weather Warning
Issued: 7:48 AM PDT Aug. 30, 2016 – National Weather Service

... Red flag warning in effect from noon MDT /11 am PDT/ today to
9 PM MDT /8 PM PDT/ this evening...

* affected area:
   fire zone 103 (clearwater/nez perce).
   Fire zone 109 (bitterroot).

* A line of showers with embedded thunderstorms will track from
south to north this afternoon creating strong gusty winds. The
highest wind gusts will be associated with this line of showers.

* Winds: southerly winds 20 to 30 mph with gusts ranging from 35
to 55 mph. Erratic winds are possible near thunderstorms and
complex terrain.

* Minimum humidities: 7 to 12 percent at lower elevations. 13 to
18 percent at higher elevations.